createdAt,value
2022-10-20T00:01:46.392Z,101333.03
2022-10-20T00:04:49.205Z,101337.66
2022-10-20T00:07:51.702Z,101336.81
2022-10-20T00:10:58.108Z,101326.03
2022-10-20T00:14:01.695Z,101328.69
2022-10-20T00:17:05.550Z,101329.38
2022-10-20T00:23:23.199Z,101338.53
2022-10-20T00:26:27.270Z,101342.06
2022-10-20T00:29:30.023Z,101353.31
2022-10-20T00:32:32.623Z,101355.69
2022-10-20T00:35:38.584Z,101346.31
2022-10-20T00:38:41.312Z,101316.97
2022-10-20T00:41:44.074Z,101345.97
2022-10-20T00:44:56.249Z,101340.38
2022-10-20T00:48:07.401Z,101336.62
2022-10-20T00:51:13.085Z,101334.78
2022-10-20T00:54:19.507Z,101326.91
2022-10-20T00:57:22.021Z,101335.72
2022-10-20T01:00:25.645Z,101331.38
2022-10-20T01:03:32.568Z,101333.50
2022-10-20T01:06:35.402Z,101333.69
2022-10-20T01:09:39.163Z,101316.03
2022-10-20T01:13:00.098Z,101311.81
2022-10-20T01:16:19.612Z,101318.06
2022-10-20T01:19:47.059Z,101323.91
2022-10-20T01:23:27.963Z,101315.63
2022-10-20T01:26:58.366Z,101297.84
2022-10-20T01:30:08.975Z,101302.34
2022-10-20T01:33:20.041Z,101306.62
2022-10-20T01:36:37.655Z,101309.38
2022-10-20T01:39:47.302Z,101304.19
2022-10-20T01:42:51.632Z,101298.09
2022-10-20T01:45:54.783Z,101299.06
2022-10-20T01:48:57.696Z,101301.53
2022-10-20T01:52:00.742Z,101296.09
2022-10-20T01:55:11.582Z,101293.38
2022-10-20T01:58:16.952Z,101290.25
2022-10-20T02:01:37.388Z,101290.16
2022-10-20T02:05:48.011Z,101288.03
2022-10-20T02:08:56.374Z,101290.72
2022-10-20T02:12:21.549Z,101295.31
2022-10-20T02:15:27.434Z,101289.84
2022-10-20T02:18:32.290Z,101285.50
2022-10-20T02:21:34.750Z,101291.25
2022-10-20T02:24:39.270Z,101292.13
2022-10-20T02:27:44.292Z,101278.16
2022-10-20T02:30:47.763Z,101275.22
2022-10-20T02:33:50.522Z,101274.31
2022-10-20T02:36:57.456Z,101289.28
2022-10-20T02:39:59.953Z,101278.94
2022-10-20T02:43:02.764Z,101274.16
2022-10-20T02:46:05.378Z,101277.56
2022-10-20T02:49:08.235Z,101273.19
2022-10-20T02:52:10.714Z,101276.41
2022-10-20T02:55:13.556Z,101283.28
2022-10-20T02:58:16.067Z,101281.06
2022-10-20T03:01:18.912Z,101278.31
2022-10-20T03:04:21.715Z,101284.37
2022-10-20T03:07:24.549Z,101289.38
2022-10-20T03:10:28.940Z,101280.41
2022-10-20T03:13:31.894Z,101269.72
2022-10-20T03:16:34.581Z,101274.69
2022-10-20T03:19:37.312Z,101284.34
2022-10-20T03:22:39.748Z,101280.13
2022-10-20T03:25:42.476Z,101293.00
2022-10-20T03:28:44.886Z,101295.13
2022-10-20T03:31:47.667Z,101294.34
2022-10-20T03:34:50.104Z,101290.34
2022-10-20T03:37:52.819Z,101294.69
2022-10-20T03:40:56.282Z,101296.69
2022-10-20T03:43:59.410Z,101282.94
2022-10-20T03:47:01.831Z,101283.81
2022-10-20T03:53:13.187Z,101290.69
2022-10-20T03:56:19.083Z,101297.69
2022-10-20T03:59:22.803Z,101298.34
2022-10-20T04:02:41.471Z,101307.25
2022-10-20T04:05:44.839Z,101303.19
2022-10-20T04:08:47.409Z,101293.59
2022-10-20T04:11:50.216Z,101307.75
2022-10-20T04:14:52.742Z,101301.06
2022-10-20T04:17:55.749Z,101296.25
2022-10-20T04:20:58.474Z,101299.69
2022-10-20T04:24:01.214Z,101302.38
2022-10-20T04:27:03.806Z,101298.03
2022-10-20T04:30:07.170Z,101303.75
2022-10-20T04:33:09.950Z,101279.12
2022-10-20T04:36:13.429Z,101300.94
2022-10-20T04:39:16.135Z,101298.56
2022-10-20T04:42:19.363Z,101297.47
2022-10-20T04:45:21.880Z,101300.47
2022-10-20T04:48:25.249Z,101309.09
2022-10-20T04:51:27.745Z,101309.91
2022-10-20T04:54:30.490Z,101304.75
2022-10-20T04:57:33.583Z,101309.16
2022-10-20T05:00:38.769Z,101305.38
2022-10-20T05:03:41.297Z,101303.12
2022-10-20T05:06:43.995Z,101308.03
2022-10-20T05:09:46.459Z,101302.50
2022-10-20T05:12:49.161Z,101298.91
2022-10-20T05:15:54.842Z,101307.72
2022-10-20T05:18:58.221Z,101302.31
2022-10-20T05:22:00.845Z,101304.06
2022-10-20T05:25:35.491Z,101299.97
2022-10-20T05:28:26.877Z,101305.13
2022-10-20T05:31:29.894Z,101313.06
2022-10-20T05:34:32.426Z,101285.69
2022-10-20T05:37:35.524Z,101309.59
2022-10-20T05:40:38.161Z,101309.78
2022-10-20T05:43:41.310Z,101310.84
2022-10-20T05:46:43.840Z,101312.50
2022-10-20T05:49:46.712Z,101324.09
2022-10-20T05:52:49.348Z,101324.69
2022-10-20T05:55:52.318Z,101327.12
2022-10-20T05:58:55.384Z,101329.41
2022-10-20T06:01:58.391Z,101329.53
2022-10-20T06:05:01.251Z,101333.13
2022-10-20T06:08:04.026Z,101341.87
2022-10-20T06:11:09.920Z,101337.97
2022-10-20T06:14:12.530Z,101340.28
2022-10-20T06:17:15.484Z,101328.50
2022-10-20T06:20:23.446Z,101341.91
2022-10-20T06:23:26.263Z,101345.59
2022-10-20T06:26:30.042Z,101330.78
2022-10-20T06:29:32.912Z,101340.31
2022-10-20T06:32:35.541Z,101338.28
2022-10-20T06:35:38.477Z,101327.50
2022-10-20T06:38:42.237Z,101331.94
2022-10-20T06:41:50.684Z,101323.81
2022-10-20T06:44:55.204Z,101333.41
2022-10-20T06:47:58.031Z,101352.63
2022-10-20T06:51:05.914Z,101348.28
2022-10-20T06:54:09.437Z,101339.19
2022-10-20T06:57:12.593Z,101334.09
2022-10-20T07:00:17.665Z,101337.97
2022-10-20T07:03:21.382Z,101337.66
2022-10-20T07:06:28.329Z,101332.44
2022-10-20T07:09:30.935Z,101330.97
2022-10-20T07:12:34.143Z,101342.63
2022-10-20T07:15:37.001Z,101336.47
2022-10-20T07:18:40.417Z,101338.78
2022-10-20T07:21:45.570Z,101346.25
2022-10-20T07:24:48.849Z,101340.00
2022-10-20T07:27:51.328Z,101338.91
2022-10-20T07:30:55.424Z,101344.69
2022-10-20T07:34:07.407Z,101344.16
2022-10-20T07:37:16.782Z,101351.69
2022-10-20T07:40:20.116Z,101352.81
2022-10-20T07:43:23.232Z,101342.41
2022-10-20T07:46:26.304Z,101338.69
2022-10-20T07:49:45.228Z,101337.53
2022-10-20T07:52:52.731Z,101341.69
2022-10-20T07:55:55.517Z,101322.50
2022-10-20T07:58:58.842Z,101327.47
2022-10-20T08:02:02.175Z,101316.84
2022-10-20T08:05:05.386Z,101325.75
2022-10-20T08:08:07.971Z,101318.37
2022-10-20T08:11:11.599Z,101312.28
2022-10-20T08:14:17.571Z,101313.56
2022-10-20T08:17:20.938Z,101320.56
2022-10-20T08:20:35.827Z,101315.66
2022-10-20T08:23:40.682Z,101311.50
2022-10-20T08:26:43.251Z,101311.28
2022-10-20T08:29:54.991Z,101318.78
2022-10-20T08:33:10.523Z,101320.22
2022-10-20T08:36:14.571Z,101313.97
2022-10-20T08:39:17.042Z,101315.78
2022-10-20T08:42:19.893Z,101308.16
2022-10-20T08:45:24.731Z,101312.69
2022-10-20T08:48:29.970Z,101315.66
2022-10-20T08:51:36.354Z,101315.34
2022-10-20T08:54:39.441Z,101298.84
2022-10-20T08:57:42.420Z,101305.84
2022-10-20T09:00:47.955Z,101292.97
2022-10-20T09:03:55.981Z,101294.69
2022-10-20T09:07:01.851Z,101301.69
2022-10-20T09:10:19.191Z,101293.09
2022-10-20T09:13:27.553Z,101289.31
2022-10-20T09:16:40.785Z,101289.69
2022-10-20T09:19:56.943Z,101284.09
2022-10-20T09:23:04.158Z,101283.56
2022-10-20T09:26:30.402Z,101289.88
2022-10-20T09:29:39.086Z,101282.28
2022-10-20T09:32:46.840Z,101278.34
2022-10-20T09:35:52.484Z,101273.91
2022-10-20T09:38:56.223Z,101276.91
2022-10-20T09:42:07.729Z,101281.16
2022-10-20T09:45:15.706Z,101282.78
2022-10-20T09:48:20.843Z,101273.66
2022-10-20T09:51:26.492Z,101275.97
2022-10-20T09:54:29.560Z,101276.84
2022-10-20T09:57:32.459Z,101273.19
2022-10-20T10:00:44.883Z,101272.47
2022-10-20T10:03:52.017Z,101273.91
2022-10-20T10:06:54.567Z,101279.47
2022-10-20T10:10:05.400Z,101278.28
2022-10-20T10:13:26.655Z,101271.78
2022-10-20T10:16:40.811Z,101279.38
2022-10-20T10:19:51.415Z,101269.59
2022-10-20T10:23:24.252Z,101256.03
2022-10-20T10:26:52.925Z,101244.63
2022-10-20T10:29:57.492Z,101240.13
2022-10-20T10:33:00.542Z,101253.53
2022-10-20T10:36:07.121Z,101249.72
2022-10-20T10:39:14.316Z,101236.63
2022-10-20T10:42:49.365Z,101238.59
2022-10-20T10:45:53.499Z,101231.78
2022-10-20T10:49:18.051Z,101233.91
2022-10-20T10:52:49.089Z,101243.06
2022-10-20T10:55:57.680Z,101237.97
2022-10-20T10:59:14.219Z,101237.41
2022-10-20T11:02:34.408Z,101229.25
2022-10-20T11:06:01.270Z,101232.12
2022-10-20T11:09:39.229Z,101226.78
2022-10-20T11:13:27.078Z,101215.06
2022-10-20T11:16:40.685Z,101209.59
2022-10-20T11:20:18.685Z,101204.06
2022-10-20T11:23:27.554Z,101198.00
2022-10-20T11:26:41.271Z,101194.44
2022-10-20T11:29:57.933Z,101174.31
2022-10-20T11:33:05.559Z,101185.06
2022-10-20T11:36:15.074Z,101166.22
2022-10-20T11:39:28.554Z,101167.94
2022-10-20T11:42:40.433Z,101154.53
2022-10-20T11:45:55.328Z,101155.56
2022-10-20T11:49:00.387Z,101154.53
2022-10-20T11:52:25.380Z,101148.13
2022-10-20T11:55:37.610Z,101142.78
2022-10-20T11:59:02.640Z,101134.78
2022-10-20T12:02:17.719Z,101125.69
2022-10-20T12:05:26.296Z,101128.37
2022-10-20T12:08:51.217Z,101128.22
2022-10-20T12:12:00.129Z,101122.78
2022-10-20T12:15:19.824Z,101096.50
2022-10-20T12:18:27.864Z,101110.84
2022-10-20T12:22:02.909Z,101110.69
2022-10-20T12:25:05.568Z,101107.25
2022-10-20T12:28:20.830Z,101101.87
2022-10-20T12:31:25.852Z,101112.91
2022-10-20T12:34:39.331Z,101105.44
2022-10-20T12:37:44.923Z,101094.31
2022-10-20T12:40:58.074Z,101099.81
2022-10-20T12:44:04.759Z,101090.72
2022-10-20T12:47:08.908Z,101089.97
2022-10-20T12:50:28.717Z,101090.84
2022-10-20T12:53:31.385Z,101082.91
2022-10-20T12:56:38.196Z,101081.94
2022-10-20T12:59:41.049Z,101082.81
2022-10-20T13:02:47.016Z,101091.91
2022-10-20T13:05:49.834Z,101083.59
2022-10-20T13:09:05.081Z,101085.63
2022-10-20T13:12:26.330Z,101070.34
2022-10-20T13:15:35.575Z,101073.94
2022-10-20T13:18:44.826Z,101068.47
2022-10-20T13:21:49.766Z,101056.66
2022-10-20T13:24:55.942Z,101061.13
2022-10-20T13:28:14.843Z,101054.91
2022-10-20T13:31:20.011Z,101060.03
2022-10-20T13:34:46.045Z,101062.16
2022-10-20T13:38:07.876Z,101048.69
2022-10-20T13:41:23.429Z,101040.56
2022-10-20T13:45:02.761Z,101035.03
2022-10-20T13:48:05.492Z,101041.72
2022-10-20T13:51:20.786Z,101039.09
2022-10-20T13:54:28.718Z,101034.53
2022-10-20T13:57:33.520Z,101036.22
2022-10-20T14:00:37.400Z,101031.81
2022-10-20T14:03:47.303Z,101026.34
2022-10-20T14:06:49.795Z,101025.47
2022-10-20T14:10:02.083Z,101042.66
2022-10-20T14:13:08.033Z,101032.00
2022-10-20T14:16:26.701Z,101036.59
2022-10-20T14:19:30.727Z,101039.34
2022-10-20T14:22:34.971Z,101029.25
2022-10-20T14:25:38.617Z,101029.22
2022-10-20T14:28:42.182Z,101035.75
2022-10-20T14:31:46.046Z,101036.72
2022-10-20T14:35:00.721Z,101025.16
2022-10-20T14:38:05.963Z,101029.66
2022-10-20T14:41:09.961Z,101024.47
2022-10-20T14:44:31.046Z,101031.66
2022-10-20T14:47:39.351Z,101030.84
2022-10-20T14:50:48.363Z,101036.22
2022-10-20T14:53:51.113Z,101029.97
2022-10-20T14:57:25.144Z,101020.13
2022-10-20T15:00:36.450Z,101029.38
2022-10-20T15:03:38.931Z,101026.69
2022-10-20T15:06:42.871Z,101024.91
2022-10-20T15:09:49.078Z,101015.12
2022-10-20T15:12:53.797Z,101020.50
2022-10-20T15:16:01.334Z,101021.47
2022-10-20T15:19:22.944Z,101016.97
2022-10-20T15:22:25.378Z,101014.44
2022-10-20T15:25:30.257Z,101005.41
2022-10-20T15:28:35.384Z,100996.41
2022-10-20T15:31:38.249Z,100999.31
2022-10-20T15:34:40.724Z,100997.50
2022-10-20T15:37:43.631Z,100992.22
2022-10-20T15:40:48.257Z,100991.44
2022-10-20T15:43:51.540Z,100988.91
2022-10-20T15:46:54.029Z,100984.44
2022-10-20T15:49:56.966Z,100978.31
2022-10-20T15:52:59.589Z,100972.94
2022-10-20T15:56:02.325Z,100955.94
2022-10-20T16:02:13.182Z,100960.50
2022-10-20T16:05:17.507Z,100960.62
2022-10-20T16:08:20.046Z,100974.19
2022-10-20T16:11:26.044Z,100963.47
2022-10-20T16:14:48.637Z,100967.97
2022-10-20T16:18:11.468Z,100963.53
2022-10-20T16:21:34.131Z,100960.84
2022-10-20T16:24:56.778Z,100950.97
2022-10-20T16:28:19.087Z,100961.75
2022-10-20T16:31:41.692Z,100976.13
2022-10-20T16:34:44.320Z,100968.13
2022-10-20T16:37:47.751Z,100980.72
2022-10-20T16:41:01.265Z,100985.22
2022-10-20T16:44:06.290Z,100989.75
2022-10-20T16:47:10.902Z,101006.81
2022-10-20T16:50:13.957Z,100997.88
2022-10-20T16:53:16.820Z,100999.69
2022-10-20T16:56:20.999Z,100995.19
2022-10-20T16:59:24.123Z,100999.75
2022-10-20T17:02:27.042Z,100991.69
2022-10-20T17:05:29.801Z,100992.59
2022-10-20T17:08:34.379Z,100999.78
2022-10-20T17:11:37.033Z,101000.66
2022-10-20T17:14:40.837Z,101009.63
2022-10-20T17:17:43.435Z,100993.47
2022-10-20T17:20:46.428Z,100994.38
2022-10-20T17:23:49.088Z,100999.78
2022-10-20T17:26:51.793Z,100998.88
2022-10-20T17:29:54.361Z,100994.41
2022-10-20T17:32:57.418Z,100994.38
2022-10-20T17:36:01.178Z,100993.47
2022-10-20T17:39:06.853Z,100989.00
2022-10-20T17:42:17.317Z,100981.81
2022-10-20T17:45:20.423Z,100989.00
2022-10-20T17:48:23.159Z,100984.53
2022-10-20T17:51:31.777Z,100988.12
2022-10-20T17:54:38.323Z,100982.75
2022-10-20T17:57:41.296Z,100979.16
2022-10-20T18:00:56.129Z,100954.94
2022-10-20T18:04:08.586Z,100974.66
2022-10-20T18:07:11.350Z,100964.78
2022-10-20T18:10:14.679Z,100963.91
2022-10-20T18:13:17.498Z,100949.56
2022-10-20T18:16:21.533Z,100960.31
2022-10-20T18:19:25.714Z,100953.13
2022-10-20T18:22:28.649Z,100961.19
2022-10-20T18:25:31.331Z,100965.66
2022-10-20T18:28:35.271Z,100955.81
2022-10-20T18:31:39.904Z,100959.44
2022-10-20T18:34:43.592Z,100951.34
2022-10-20T18:37:50.010Z,100947.75
2022-10-20T18:40:53.012Z,100954.03
2022-10-20T18:43:58.438Z,100954.94
2022-10-20T18:47:01.544Z,100950.47
2022-10-20T18:50:04.607Z,100948.66
2022-10-20T18:53:07.720Z,100952.25
2022-10-20T18:56:18.531Z,100955.81
2022-10-20T18:59:22.909Z,100949.53
2022-10-20T19:02:28.401Z,100940.59
2022-10-20T19:05:31.332Z,100937.03
2022-10-20T19:08:35.125Z,100943.28
2022-10-20T19:11:39.915Z,100939.69
2022-10-20T19:14:42.702Z,100943.25
2022-10-20T19:17:45.809Z,100946.84
2022-10-20T19:21:01.876Z,100939.69
2022-10-20T19:24:08.009Z,100941.50
2022-10-20T19:27:27.221Z,100945.97
2022-10-20T19:30:34.674Z,100940.59
2022-10-20T19:33:37.400Z,100942.37
2022-10-20T19:36:42.200Z,100926.25
2022-10-20T19:39:45.010Z,100928.94
2022-10-20T19:42:47.969Z,100930.69
2022-10-20T19:45:50.758Z,100936.06
2022-10-20T19:48:53.826Z,100937.84
2022-10-20T19:51:56.637Z,100936.94
2022-10-20T19:55:01.466Z,100944.09
2022-10-20T19:58:04.702Z,100936.00
2022-10-20T20:01:07.964Z,100942.31
2022-10-20T20:04:10.997Z,100943.19
2022-10-20T20:07:13.469Z,100938.69
2022-10-20T20:10:16.659Z,100928.84
2022-10-20T20:13:22.210Z,100941.41
2022-10-20T20:16:26.196Z,100937.81
2022-10-20T20:19:30.824Z,100929.72
2022-10-20T20:22:33.932Z,100936.88
2022-10-20T20:25:40.383Z,100930.59
2022-10-20T20:28:43.593Z,100921.59
2022-10-20T20:31:48.075Z,100938.59
2022-10-20T20:34:50.911Z,100941.28
2022-10-20T20:37:53.428Z,100941.25
2022-10-20T20:40:58.652Z,100942.16
2022-10-20T20:44:05.462Z,100934.06
2022-10-20T20:47:10.704Z,100935.81
2022-10-20T20:50:13.268Z,100941.19
2022-10-20T20:53:16.025Z,100928.63
2022-10-20T20:56:21.686Z,100930.38
2022-10-20T20:59:26.068Z,100941.13
2022-10-20T21:02:28.537Z,100928.56
2022-10-20T21:05:31.218Z,100936.59
2022-10-20T21:08:34.782Z,100930.34
2022-10-20T21:11:37.673Z,100930.34
2022-10-20T21:14:40.126Z,100929.53
2022-10-20T21:17:42.819Z,100930.41
2022-10-20T21:20:45.323Z,100934.84
2022-10-20T21:23:48.133Z,100925.88
2022-10-20T21:26:50.637Z,100918.72
2022-10-20T21:29:53.346Z,100915.09
2022-10-20T21:32:55.803Z,100928.47
2022-10-20T21:36:10.290Z,100915.06
2022-10-20T21:39:15.984Z,100920.47
2022-10-20T21:42:18.743Z,100926.66
2022-10-20T21:45:21.169Z,100930.28
2022-10-20T21:48:23.910Z,100909.62
2022-10-20T21:51:32.749Z,100908.75
2022-10-20T21:54:35.594Z,100913.25
2022-10-20T21:57:38.517Z,100906.97
2022-10-20T22:00:41.399Z,100899.81
2022-10-20T22:03:45.488Z,100900.75
2022-10-20T22:06:48.232Z,100907.84
2022-10-20T22:09:51.947Z,100907.81
2022-10-20T22:12:54.390Z,100907.84
2022-10-20T22:15:57.135Z,100912.28
2022-10-20T22:19:05.920Z,100925.69
2022-10-20T22:22:08.981Z,100929.19
2022-10-20T22:25:11.469Z,100929.22
2022-10-20T22:28:14.182Z,100930.06
2022-10-20T22:31:18.068Z,100935.34
2022-10-20T22:34:21.150Z,100936.19
2022-10-20T22:37:23.672Z,100940.59
2022-10-20T22:40:26.402Z,100930.69
2022-10-20T22:43:29.976Z,100924.38
2022-10-20T22:46:32.993Z,100912.72
2022-10-20T22:49:35.702Z,100903.78
2022-10-20T22:52:38.713Z,100901.94
2022-10-20T22:55:41.603Z,100892.25
2022-10-20T22:58:44.892Z,100890.56
2022-10-20T23:01:47.361Z,100881.69
2022-10-20T23:04:50.105Z,100886.16
2022-10-20T23:07:52.520Z,100888.91
2022-10-20T23:10:57.142Z,100899.59
2022-10-20T23:13:59.691Z,100891.56
2022-10-20T23:17:02.374Z,100892.41
2022-10-20T23:20:05.680Z,100904.91
2022-10-20T23:23:08.480Z,100902.22
2022-10-20T23:26:11.235Z,100906.69
2022-10-20T23:29:14.126Z,100910.38
2022-10-20T23:32:16.569Z,100911.31
2022-10-20T23:35:19.320Z,100900.59
2022-10-20T23:38:21.743Z,100899.62
2022-10-20T23:41:24.840Z,100887.16
2022-10-20T23:44:27.406Z,100886.34
2022-10-20T23:47:30.186Z,100875.56
2022-10-20T23:50:32.706Z,100877.34
2022-10-20T23:53:35.586Z,100879.12
2022-10-20T23:56:38.125Z,100875.56
2022-10-20T23:59:40.883Z,100883.63
